createdAt,value
2018-05-10T00:00:06.050Z,0.00
2018-05-10T00:01:06.248Z,0.00
2018-05-10T00:02:06.496Z,0.00
2018-05-10T00:03:06.682Z,0.00
2018-05-10T00:04:06.906Z,0.00
2018-05-10T00:05:07.119Z,0.00
2018-05-10T00:06:09.278Z,0.00
2018-05-10T00:07:07.488Z,0.00
2018-05-10T00:08:11.283Z,0.00
2018-05-10T00:09:07.873Z,0.00
2018-05-10T00:10:08.084Z,0.00
2018-05-10T00:11:08.298Z,0.00
2018-05-10T00:12:08.518Z,0.00
2018-05-10T00:13:08.724Z,0.00
2018-05-10T00:14:08.950Z,0.00
2018-05-10T00:15:10.783Z,0.00
2018-05-10T00:16:09.379Z,0.00
2018-05-10T00:17:09.607Z,0.00
2018-05-10T00:18:09.822Z,0.00
2018-05-10T00:19:11.785Z,0.00
2018-05-10T00:20:10.250Z,0.00
2018-05-10T00:21:10.463Z,0.00
2018-05-10T00:22:10.684Z,0.00
2018-05-10T00:23:10.923Z,0.00
2018-05-10T00:24:11.095Z,0.00
2018-05-10T00:25:11.323Z,0.00
2018-05-10T00:26:11.574Z,0.00
2018-05-10T00:27:11.761Z,0.00
2018-05-10T00:28:11.982Z,0.00
2018-05-10T00:29:12.091Z,0.00
2018-05-10T00:30:12.298Z,0.00
2018-05-10T00:31:12.519Z,0.00
2018-05-10T00:32:12.727Z,0.00
2018-05-10T00:33:12.945Z,0.00
2018-05-10T00:34:13.195Z,0.00
2018-05-10T00:35:15.276Z,0.00
2018-05-10T00:36:13.579Z,0.00
2018-05-10T00:37:15.295Z,0.00
2018-05-10T00:38:13.874Z,0.00
2018-05-10T00:39:14.084Z,0.00
2018-05-10T00:40:17.284Z,0.00
2018-05-10T00:41:16.292Z,0.00
2018-05-10T00:42:14.633Z,0.00
2018-05-10T00:43:14.849Z,0.00
2018-05-10T00:44:16.795Z,0.00
2018-05-10T00:45:15.269Z,0.00
2018-05-10T00:46:15.491Z,0.00
2018-05-10T00:47:15.748Z,0.00
2018-05-10T00:48:15.933Z,0.00
2018-05-10T00:49:16.153Z,0.00
2018-05-10T00:50:16.375Z,0.00
2018-05-10T00:51:16.592Z,0.00
2018-05-10T00:52:16.821Z,0.00
2018-05-10T00:53:17.038Z,0.00
2018-05-10T00:54:17.252Z,0.00
2018-05-10T00:55:17.474Z,0.00
2018-05-10T00:56:17.679Z,0.00
2018-05-10T00:57:17.894Z,0.00
2018-05-10T00:58:18.155Z,0.00
2018-05-10T00:59:18.347Z,0.00
2018-05-10T01:00:18.548Z,0.00
2018-05-10T01:01:18.772Z,0.00
2018-05-10T01:02:18.989Z,0.00
2018-05-10T01:03:19.215Z,0.00
2018-05-10T01:04:19.439Z,0.00
2018-05-10T01:05:19.660Z,0.00
2018-05-10T01:06:19.880Z,0.00
2018-05-10T01:07:20.095Z,0.00
2018-05-10T01:08:20.327Z,0.00
2018-05-10T01:09:20.583Z,0.00
2018-05-10T01:10:20.752Z,0.00
2018-05-10T01:11:20.978Z,0.00
2018-05-10T01:12:21.198Z,0.00
2018-05-10T01:13:23.284Z,0.00
2018-05-10T01:14:21.650Z,0.00
2018-05-10T01:15:23.782Z,0.00
2018-05-10T01:16:22.012Z,0.00
2018-05-10T01:17:22.223Z,0.00
2018-05-10T01:18:22.480Z,0.00
2018-05-10T01:19:24.284Z,0.00
2018-05-10T01:20:22.755Z,0.00
2018-05-10T01:21:22.964Z,0.00
2018-05-10T01:22:23.191Z,0.00
2018-05-10T01:23:23.404Z,0.00
2018-05-10T01:24:27.284Z,0.00
2018-05-10T01:25:23.747Z,0.00
2018-05-10T01:26:23.977Z,0.00
2018-05-10T01:27:24.181Z,0.00
2018-05-10T01:28:24.403Z,0.00
2018-05-10T01:29:26.294Z,0.00
2018-05-10T01:30:24.764Z,0.00
2018-05-10T01:31:24.979Z,0.00
2018-05-10T01:32:25.237Z,0.00
2018-05-10T01:33:25.412Z,0.00
2018-05-10T01:34:25.536Z,0.00
2018-05-10T01:35:25.735Z,0.00
2018-05-10T01:36:27.779Z,0.00
2018-05-10T01:37:26.109Z,0.00
2018-05-10T01:38:26.336Z,0.00
2018-05-10T01:39:26.557Z,0.00
2018-05-10T01:40:26.764Z,0.00
2018-05-10T01:41:26.982Z,0.00
2018-05-10T01:42:27.212Z,0.00
2018-05-10T01:43:27.420Z,0.00
2018-05-10T01:44:27.635Z,0.00
2018-05-10T01:45:27.847Z,0.00
2018-05-10T01:46:28.053Z,0.00
2018-05-10T01:47:29.784Z,0.00
2018-05-10T01:48:28.497Z,0.00
2018-05-10T01:49:28.715Z,0.00
2018-05-10T01:50:28.942Z,0.00
2018-05-10T01:51:29.146Z,0.00
2018-05-10T01:52:29.359Z,0.00
2018-05-10T01:53:31.283Z,0.00
2018-05-10T01:54:29.746Z,0.00
2018-05-10T01:55:29.963Z,0.00
2018-05-10T01:56:30.172Z,0.00
2018-05-10T01:57:32.285Z,0.00
2018-05-10T01:58:30.502Z,0.00
2018-05-10T01:59:30.710Z,0.00
2018-05-10T02:00:32.789Z,0.00
2018-05-10T02:01:31.113Z,0.00
2018-05-10T02:02:31.328Z,0.00
2018-05-10T02:03:31.550Z,0.00
2018-05-10T02:04:31.765Z,0.00
2018-05-10T02:05:31.976Z,0.00
2018-05-10T02:06:32.214Z,0.00
2018-05-10T02:07:32.423Z,0.00
2018-05-10T02:08:32.633Z,0.00
2018-05-10T02:09:32.863Z,0.00
2018-05-10T02:10:33.069Z,0.00
2018-05-10T02:11:33.288Z,0.00
2018-05-10T02:12:33.510Z,0.00
2018-05-10T02:13:33.725Z,0.00
2018-05-10T02:14:33.948Z,0.00
2018-05-10T02:15:34.173Z,0.00
2018-05-10T02:16:34.384Z,0.00
2018-05-10T02:17:34.595Z,0.00
2018-05-10T02:18:36.781Z,0.00
2018-05-10T02:19:34.990Z,0.00
2018-05-10T02:20:35.228Z,0.00
2018-05-10T02:21:35.436Z,0.00
2018-05-10T02:22:35.646Z,0.00
2018-05-10T02:23:35.871Z,0.00
2018-05-10T02:24:36.084Z,0.00
2018-05-10T02:25:36.312Z,0.00
2018-05-10T02:26:38.288Z,0.00
2018-05-10T02:27:36.764Z,0.00
2018-05-10T02:28:36.989Z,0.00
2018-05-10T02:29:37.225Z,0.00
2018-05-10T02:30:37.416Z,0.00
2018-05-10T02:31:37.633Z,0.00
2018-05-10T02:32:37.847Z,0.00
2018-05-10T02:33:39.794Z,0.00
2018-05-10T02:34:38.254Z,0.00
2018-05-10T02:35:38.464Z,0.00
2018-05-10T02:36:40.332Z,0.00
2018-05-10T02:37:38.896Z,0.00
2018-05-10T02:38:39.104Z,0.00
2018-05-10T02:39:39.319Z,0.00
2018-05-10T02:40:39.529Z,0.00
2018-05-10T02:41:39.746Z,0.00
2018-05-10T02:42:39.969Z,0.00
2018-05-10T02:43:40.175Z,0.00
2018-05-10T02:44:42.282Z,0.00
2018-05-10T02:45:40.653Z,0.00
2018-05-10T02:46:40.847Z,0.00
2018-05-10T02:47:41.051Z,0.00
2018-05-10T02:48:41.263Z,0.00
2018-05-10T02:49:41.481Z,0.00
2018-05-10T02:50:41.702Z,0.00
2018-05-10T02:51:43.791Z,0.00
2018-05-10T02:52:42.142Z,0.00
2018-05-10T02:53:42.345Z,0.00
2018-05-10T02:54:42.555Z,0.00
2018-05-10T02:55:42.801Z,0.00
2018-05-10T02:56:43.007Z,0.00
2018-05-10T02:57:43.223Z,0.00
2018-05-10T02:58:43.430Z,0.00
2018-05-10T02:59:43.650Z,0.00
2018-05-10T03:00:43.869Z,0.00
2018-05-10T03:01:47.783Z,0.00
2018-05-10T03:02:44.240Z,0.00
2018-05-10T03:03:44.468Z,0.00
2018-05-10T03:04:44.676Z,0.00
2018-05-10T03:05:44.889Z,0.00
2018-05-10T03:06:45.106Z,0.00
2018-05-10T03:07:45.387Z,0.00
2018-05-10T03:08:45.565Z,0.00
2018-05-10T03:09:47.290Z,0.00
2018-05-10T03:10:45.998Z,0.00
2018-05-10T03:11:46.218Z,0.00
2018-05-10T03:12:46.440Z,0.00
2018-05-10T03:13:46.655Z,0.00
2018-05-10T03:14:48.788Z,0.00
2018-05-10T03:15:48.787Z,0.00
2018-05-10T03:16:47.132Z,0.00
2018-05-10T03:17:47.351Z,0.00
2018-05-10T03:18:47.566Z,0.00
2018-05-10T03:19:47.804Z,0.00
2018-05-10T03:20:48.034Z,0.00
2018-05-10T03:21:48.222Z,0.00
2018-05-10T03:22:48.445Z,0.00
2018-05-10T03:23:48.667Z,0.00
2018-05-10T03:24:48.901Z,0.00
2018-05-10T03:25:49.144Z,0.00
2018-05-10T03:26:49.318Z,0.00
2018-05-10T03:27:49.530Z,0.00
2018-05-10T03:28:49.751Z,0.00
2018-05-10T03:29:49.973Z,0.00
2018-05-10T03:30:50.176Z,0.00
2018-05-10T03:31:50.394Z,0.00
2018-05-10T03:32:50.603Z,0.00
2018-05-10T03:33:50.829Z,0.00
2018-05-10T03:34:51.048Z,0.00
2018-05-10T03:35:52.793Z,0.00
2018-05-10T03:36:51.415Z,0.00
2018-05-10T03:37:51.625Z,5.63
2018-05-10T03:38:51.844Z,5.63
2018-05-10T03:39:52.067Z,5.63
2018-05-10T03:40:52.286Z,5.63
2018-05-10T03:41:52.506Z,5.63
2018-05-10T03:42:52.711Z,5.63
2018-05-10T03:43:52.925Z,5.63
2018-05-10T03:44:53.158Z,5.63
2018-05-10T03:45:53.372Z,11.25
2018-05-10T03:46:53.592Z,11.25
2018-05-10T03:47:55.291Z,11.25
2018-05-10T03:48:54.011Z,11.25
2018-05-10T03:49:54.230Z,11.25
2018-05-10T03:50:54.444Z,11.25
2018-05-10T03:51:54.648Z,11.25
2018-05-10T03:52:54.869Z,16.88
2018-05-10T03:53:55.092Z,16.88
2018-05-10T03:54:55.298Z,16.88
2018-05-10T03:55:57.312Z,16.88
2018-05-10T03:56:57.290Z,16.88
2018-05-10T03:57:57.802Z,16.88
2018-05-10T03:58:56.023Z,22.50
2018-05-10T03:59:56.234Z,22.50
2018-05-10T04:00:56.459Z,22.50
2018-05-10T04:01:58.291Z,28.13
2018-05-10T04:02:58.788Z,28.13
2018-05-10T04:03:57.002Z,28.13
2018-05-10T04:04:57.228Z,33.75
2018-05-10T04:05:57.496Z,33.75
2018-05-10T04:06:57.659Z,33.75
2018-05-10T04:07:57.876Z,33.75
2018-05-10T04:08:58.101Z,39.38
2018-05-10T04:09:58.331Z,39.38
2018-05-10T04:10:58.537Z,39.38
2018-05-10T04:11:58.756Z,45.00
2018-05-10T04:12:58.967Z,45.00
2018-05-10T04:13:59.182Z,45.00
2018-05-10T04:14:59.408Z,50.63
2018-05-10T04:16:03.286Z,50.63
2018-05-10T04:16:59.746Z,50.63
2018-05-10T04:17:59.974Z,56.25
2018-05-10T04:19:00.185Z,56.25
2018-05-10T04:20:00.396Z,61.88
2018-05-10T04:21:02.306Z,67.50
2018-05-10T04:22:02.301Z,73.13
2018-05-10T04:23:00.900Z,78.75
2018-05-10T04:24:01.122Z,84.38
2018-05-10T04:25:01.331Z,84.38
2018-05-10T04:26:01.547Z,84.38
2018-05-10T04:27:01.775Z,90.00
2018-05-10T04:28:02.000Z,90.00
2018-05-10T04:29:02.209Z,90.00
2018-05-10T04:30:02.429Z,95.63
2018-05-10T04:31:02.637Z,101.25
2018-05-10T04:32:02.862Z,106.88
2018-05-10T04:33:03.074Z,101.25
2018-05-10T04:34:03.295Z,106.88
2018-05-10T04:35:03.498Z,112.50
2018-05-10T04:36:03.717Z,112.50
2018-05-10T04:37:03.938Z,123.75
2018-05-10T04:38:04.162Z,129.38
2018-05-10T04:39:04.364Z,140.63
2018-05-10T04:40:04.586Z,151.88
2018-05-10T04:41:06.297Z,163.13
2018-05-10T04:42:05.014Z,168.75
2018-05-10T04:43:05.240Z,163.13
2018-05-10T04:44:05.454Z,168.75
2018-05-10T04:45:05.668Z,180.00
2018-05-10T04:46:05.889Z,185.63
2018-05-10T04:47:06.105Z,185.63
2018-05-10T04:48:06.310Z,185.63
2018-05-10T04:49:06.525Z,185.63
2018-05-10T04:50:06.733Z,191.25
2018-05-10T04:51:06.956Z,196.88
2018-05-10T04:52:07.167Z,208.13
2018-05-10T04:53:07.383Z,213.75
2018-05-10T04:54:09.291Z,208.13
2018-05-10T04:55:07.751Z,208.13
2018-05-10T04:56:07.970Z,213.75
2018-05-10T04:57:13.796Z,208.13
2018-05-10T04:58:08.391Z,208.13
2018-05-10T04:59:08.598Z,202.50
2018-05-10T05:00:08.811Z,191.25
2018-05-10T05:01:10.796Z,191.25
2018-05-10T05:02:09.260Z,202.50
2018-05-10T05:03:09.480Z,208.13
2018-05-10T05:04:11.300Z,213.75
2018-05-10T05:05:09.891Z,213.75
2018-05-10T05:06:11.802Z,213.75
2018-05-10T05:07:10.302Z,219.38
2018-05-10T05:08:10.492Z,219.38
2018-05-10T05:09:10.707Z,219.38
2018-05-10T05:10:10.941Z,219.38
2018-05-10T05:11:11.049Z,219.38
2018-05-10T05:12:12.793Z,230.63
2018-05-10T05:13:11.388Z,236.25
2018-05-10T05:14:11.599Z,236.25
2018-05-10T05:15:11.846Z,225.00
2018-05-10T05:16:12.048Z,225.00
2018-05-10T05:17:12.884Z,225.00
2018-05-10T05:18:12.471Z,230.63
2018-05-10T05:19:12.694Z,225.00
2018-05-10T05:20:12.900Z,230.63
2018-05-10T05:21:13.127Z,236.25
2018-05-10T05:22:13.337Z,253.13
2018-05-10T05:23:15.315Z,270.00
2018-05-10T05:24:13.762Z,270.00
2018-05-10T05:25:13.982Z,270.00
2018-05-10T05:26:14.205Z,270.00
2018-05-10T05:27:14.408Z,275.63
2018-05-10T05:28:14.625Z,286.88
2018-05-10T05:29:14.843Z,292.50
2018-05-10T05:30:15.064Z,292.50
2018-05-10T05:31:15.321Z,315.00
2018-05-10T05:32:15.509Z,326.25
2018-05-10T05:33:15.731Z,343.13
2018-05-10T05:34:15.948Z,371.25
2018-05-10T05:35:16.167Z,388.13
2018-05-10T05:36:16.375Z,399.38
2018-05-10T05:37:16.623Z,399.38
2018-05-10T05:38:18.797Z,393.75
2018-05-10T05:39:17.016Z,382.50
2018-05-10T05:40:20.799Z,376.88
2018-05-10T05:41:17.396Z,371.25
2018-05-10T05:42:17.587Z,365.63
2018-05-10T05:43:17.840Z,371.25
2018-05-10T05:44:18.048Z,405.00
2018-05-10T05:45:18.232Z,427.50
2018-05-10T05:46:18.481Z,433.13
2018-05-10T05:47:18.678Z,438.75
2018-05-10T05:48:18.891Z,427.50
2018-05-10T05:49:19.094Z,416.25
2018-05-10T05:50:19.324Z,416.25
2018-05-10T05:51:19.552Z,410.63
2018-05-10T05:52:19.755Z,399.38
2018-05-10T05:53:19.981Z,421.88
2018-05-10T05:54:20.201Z,450.00
2018-05-10T05:55:20.394Z,421.88
2018-05-10T05:56:20.615Z,450.00
2018-05-10T05:57:22.793Z,455.63
2018-05-10T05:58:21.015Z,483.75
2018-05-10T05:59:21.220Z,517.50
2018-05-10T06:00:21.470Z,450.00
2018-05-10T06:01:21.658Z,455.63
2018-05-10T06:02:21.875Z,450.00
2018-05-10T06:03:22.081Z,416.25
2018-05-10T06:04:22.322Z,393.75
2018-05-10T06:05:22.537Z,410.63
2018-05-10T06:06:22.742Z,433.13
2018-05-10T06:07:22.965Z,450.00
2018-05-10T06:08:23.182Z,489.38
2018-05-10T06:09:23.395Z,517.50
2018-05-10T06:10:23.616Z,511.88
2018-05-10T06:11:25.797Z,483.75
2018-05-10T06:12:24.017Z,483.75
2018-05-10T06:13:24.234Z,495.00
2018-05-10T06:14:24.452Z,483.75
2018-05-10T06:15:24.764Z,483.75
2018-05-10T06:16:24.883Z,495.00
2018-05-10T06:17:25.107Z,500.63
2018-05-10T06:18:25.329Z,523.13
2018-05-10T06:19:25.538Z,534.38
2018-05-10T06:20:25.771Z,540.00
2018-05-10T06:21:26.004Z,551.25
2018-05-10T06:22:26.206Z,511.88
2018-05-10T06:23:28.301Z,585.00
2018-05-10T06:24:28.337Z,601.88
2018-05-10T06:25:26.767Z,601.88
2018-05-10T06:26:26.989Z,601.88
2018-05-10T06:27:27.197Z,590.63
2018-05-10T06:28:27.409Z,585.00
2018-05-10T06:29:27.636Z,596.25
2018-05-10T06:30:29.808Z,635.63
2018-05-10T06:31:29.800Z,596.25
2018-05-10T06:32:28.141Z,663.75
2018-05-10T06:33:28.355Z,635.63
2018-05-10T06:34:30.301Z,618.75
2018-05-10T06:35:28.768Z,601.88
2018-05-10T06:36:32.797Z,618.75
2018-05-10T06:37:29.146Z,590.63
2018-05-10T06:38:29.353Z,607.50
2018-05-10T06:39:31.297Z,596.25
2018-05-10T06:40:29.768Z,607.50
2018-05-10T06:41:30.022Z,562.50
2018-05-10T06:42:30.208Z,607.50
2018-05-10T06:43:30.432Z,736.88
2018-05-10T06:44:30.672Z,759.38
2018-05-10T06:45:30.865Z,781.88
2018-05-10T06:46:31.073Z,787.50
2018-05-10T06:47:31.291Z,843.75
2018-05-10T06:48:31.523Z,810.00
2018-05-10T06:49:31.727Z,1248.75
2018-05-10T06:50:31.953Z,1085.63
2018-05-10T06:51:32.179Z,1158.75
2018-05-10T06:52:32.418Z,1018.13
2018-05-10T06:53:34.316Z,990.00
2018-05-10T06:54:32.799Z,928.13
2018-05-10T06:55:33.011Z,843.75
2018-05-10T06:56:33.257Z,793.13
2018-05-10T06:57:33.459Z,810.00
2018-05-10T06:58:33.672Z,770.63
2018-05-10T06:59:33.890Z,798.75
2018-05-10T07:00:34.103Z,781.88
2018-05-10T07:01:38.300Z,826.88
2018-05-10T07:02:34.534Z,945.00
2018-05-10T07:03:34.782Z,1091.25
2018-05-10T07:04:34.858Z,916.88
2018-05-10T07:05:35.091Z,905.63
2018-05-10T07:06:35.327Z,849.38
2018-05-10T07:07:35.545Z,961.88
2018-05-10T07:08:35.757Z,956.25
2018-05-10T07:09:36.114Z,978.75
2018-05-10T07:10:36.107Z,916.88
2018-05-10T07:11:36.322Z,883.13
2018-05-10T07:12:38.304Z,978.75
2018-05-10T07:13:36.803Z,1209.38
2018-05-10T07:14:38.801Z,1119.38
2018-05-10T07:15:37.159Z,1192.50
2018-05-10T07:16:39.304Z,1760.63
2018-05-10T07:17:39.306Z,1732.50
2018-05-10T07:18:41.312Z,2424.38
2018-05-10T07:19:39.304Z,2216.25
2018-05-10T07:20:38.018Z,3031.88
2018-05-10T07:21:39.817Z,3009.38
2018-05-10T07:22:38.410Z,3245.63
2018-05-10T07:23:39.649Z,1833.75
2018-05-10T07:24:38.892Z,3043.13
2018-05-10T07:25:42.853Z,3037.50
2018-05-10T07:26:39.180Z,3003.75
2018-05-10T07:27:41.299Z,3121.88
2018-05-10T07:28:41.303Z,3093.75
2018-05-10T07:29:39.683Z,3043.13
2018-05-10T07:30:41.815Z,3099.38
2018-05-10T07:31:41.801Z,2975.63
2018-05-10T07:32:41.801Z,3015.00
2018-05-10T07:33:41.461Z,2885.63
2018-05-10T07:34:42.344Z,3088.13
2018-05-10T07:35:42.318Z,3093.75
2018-05-10T07:36:43.841Z,3116.25
2018-05-10T07:37:42.807Z,3150.00
2018-05-10T07:38:42.879Z,3228.75
2018-05-10T07:39:46.238Z,3273.75
2018-05-10T07:40:42.260Z,3273.75
2018-05-10T07:41:49.816Z,3223.13
2018-05-10T07:42:43.832Z,3110.63
2018-05-10T07:43:42.232Z,3009.38
2018-05-10T07:44:45.333Z,2941.88
2018-05-10T07:45:44.309Z,2857.50
2018-05-10T07:46:44.319Z,2835.00
2018-05-10T07:47:50.343Z,2880.00
2018-05-10T07:48:43.058Z,2998.13
2018-05-10T07:49:59.768Z,3099.38
2018-05-10T07:50:43.486Z,3228.75
2018-05-10T07:51:45.308Z,3324.38
2018-05-10T07:52:43.897Z,3391.88
2018-05-10T07:53:45.802Z,3431.25
2018-05-10T07:54:45.810Z,3442.50
2018-05-10T07:55:46.366Z,3442.50
2018-05-10T07:56:51.357Z,3470.63
2018-05-10T07:57:44.701Z,3476.25
2018-05-10T07:58:45.757Z,3493.13
2018-05-10T07:59:46.847Z,3493.13
2018-05-10T08:00:47.301Z,3493.13
2018-05-10T08:01:46.297Z,3510.00
2018-05-10T08:02:47.308Z,3515.63
2018-05-10T08:03:49.841Z,3510.00
2018-05-10T08:04:47.219Z,3538.13
2018-05-10T08:05:48.321Z,3560.63
2018-05-10T08:06:48.365Z,3577.50
2018-05-10T08:07:48.301Z,3605.63
2018-05-10T08:08:52.260Z,3633.75
2018-05-10T08:09:47.304Z,3639.38
2018-05-10T08:10:49.315Z,3650.63
2018-05-10T08:11:47.550Z,3645.00
2018-05-10T08:12:50.336Z,3645.00
2018-05-10T08:13:50.404Z,3661.88
2018-05-10T08:14:51.804Z,3678.75
2018-05-10T08:15:49.852Z,3706.88
2018-05-10T08:16:51.369Z,3735.00
2018-05-10T08:17:49.652Z,3785.63
2018-05-10T08:18:48.784Z,3819.38
2018-05-10T08:19:51.769Z,3875.63
2018-05-10T08:21:12.766Z,3903.75
2018-05-10T08:21:56.324Z,3937.50
2018-05-10T08:22:51.311Z,3954.38
2018-05-10T08:23:51.811Z,3982.50
2018-05-10T08:24:52.119Z,4021.88
2018-05-10T08:25:52.322Z,4055.63
2018-05-10T08:26:51.108Z,4100.63
2018-05-10T08:27:52.787Z,4151.25
2018-05-10T08:28:57.838Z,3352.50
2018-05-10T08:29:53.177Z,3110.63
2018-05-10T08:30:54.275Z,2835.00
2018-05-10T08:31:54.010Z,3178.13
2018-05-10T08:32:56.848Z,2390.63
2018-05-10T08:34:24.539Z,2986.88
2018-05-10T08:34:56.304Z,3026.25
2018-05-10T08:35:54.319Z,3217.50
2018-05-10T08:36:54.767Z,1704.38
2018-05-10T08:37:56.201Z,1710.00
2018-05-10T08:38:54.058Z,2165.63
2018-05-10T08:39:55.307Z,2328.75
2018-05-10T08:40:55.344Z,2435.63
2018-05-10T08:41:53.873Z,3037.50
2018-05-10T08:42:55.914Z,2103.75
2018-05-10T08:43:54.604Z,1771.88
2018-05-10T08:44:57.324Z,2126.25
2018-05-10T08:45:56.361Z,1535.63
2018-05-10T08:46:54.763Z,1468.13
2018-05-10T08:47:58.800Z,1411.88
2018-05-10T08:49:02.842Z,1423.13
2018-05-10T08:50:00.347Z,1440.00
2018-05-10T08:51:12.370Z,1659.38
2018-05-10T08:51:57.470Z,1597.50
2018-05-10T08:52:57.353Z,2160.00
2018-05-10T08:53:58.668Z,2818.13
2018-05-10T08:54:56.779Z,4263.75
2018-05-10T08:55:59.962Z,4190.63
2018-05-10T08:56:56.471Z,4179.38
2018-05-10T08:57:58.836Z,4134.38
2018-05-10T08:58:58.964Z,4106.25
2018-05-10T08:59:59.712Z,4072.50
2018-05-10T09:00:59.823Z,4078.13
2018-05-10T09:01:58.724Z,4066.88
2018-05-10T09:02:59.759Z,4066.88
2018-05-10T09:03:58.502Z,4072.50
2018-05-10T09:06:33.889Z,4072.50
2018-05-10T09:07:34.651Z,4061.25
2018-05-10T09:08:35.730Z,4066.88
2018-05-10T09:09:35.231Z,4038.75
2018-05-10T09:10:36.835Z,4055.63
2018-05-10T09:11:33.139Z,4095.00
2018-05-10T09:12:32.178Z,4106.25
2018-05-10T09:13:40.230Z,4089.38
2018-05-10T09:14:32.498Z,4072.50
2018-05-10T09:15:32.988Z,4100.63
2018-05-10T09:16:37.220Z,4100.63
2018-05-10T09:17:36.718Z,4106.25
2018-05-10T09:18:36.127Z,4111.88
2018-05-10T09:19:55.831Z,4111.88
2018-05-10T09:20:34.056Z,4151.25
2018-05-10T09:21:33.568Z,4156.88
2018-05-10T09:22:41.098Z,4123.13
2018-05-10T09:23:35.865Z,3993.75
2018-05-10T09:24:34.158Z,3870.00
2018-05-10T09:25:56.042Z,3718.13
2018-05-10T09:28:25.346Z,3481.88
2018-05-10T09:29:08.272Z,3571.88
2018-05-10T09:32:00.012Z,4016.25
2018-05-10T09:33:03.463Z,4134.38
2018-05-10T09:36:58.516Z,4224.38
2018-05-10T09:37:52.803Z,4235.63
2018-05-10T09:38:55.474Z,4168.13
2018-05-10T09:43:10.914Z,4218.75
2018-05-10T09:44:12.737Z,4185.00
2018-05-10T09:45:07.494Z,4089.38
2018-05-10T09:46:10.434Z,4145.63
2018-05-10T09:47:32.941Z,4151.25
2018-05-10T09:49:42.344Z,4055.63
2018-05-10T09:52:18.026Z,2655.00
2018-05-10T09:53:16.689Z,4117.50
2018-05-10T09:54:34.708Z,4168.13
2018-05-10T09:55:36.193Z,4050.00
2018-05-10T09:56:13.023Z,3436.88
2018-05-10T09:57:41.089Z,4201.88
2018-05-10T09:59:57.699Z,4342.50
2018-05-10T10:00:50.507Z,4224.38
2018-05-10T10:01:53.561Z,4061.25
2018-05-10T10:03:00.580Z,3780.00
2018-05-10T10:05:38.623Z,4066.88
2018-05-10T10:06:18.199Z,1828.13
2018-05-10T10:07:34.654Z,1681.88
2018-05-10T10:09:53.003Z,4066.88
2018-05-10T10:10:51.973Z,3864.38
2018-05-10T10:11:51.629Z,2070.00
2018-05-10T10:12:57.528Z,3060.00
2018-05-10T10:13:52.008Z,4128.75
2018-05-10T10:15:02.011Z,4072.50
2018-05-10T10:15:53.399Z,4190.63
2018-05-10T10:16:52.720Z,4213.13
2018-05-10T10:17:51.978Z,4066.88
2018-05-10T10:18:52.011Z,3976.88
2018-05-10T10:20:03.006Z,4111.88
2018-05-10T10:22:26.122Z,3971.25
2018-05-10T10:23:26.317Z,1530.00
2018-05-10T10:24:31.706Z,1884.38
2018-05-10T10:26:59.608Z,4117.50
2018-05-10T10:28:18.643Z,4196.25
2018-05-10T10:30:42.921Z,3403.13
2018-05-10T10:31:40.621Z,2019.38
2018-05-10T10:32:58.916Z,3948.75
2018-05-10T10:33:36.461Z,1828.13
2018-05-10T10:34:30.471Z,1642.50
2018-05-10T10:35:55.902Z,4050.00
2018-05-10T10:36:32.887Z,2840.63
2018-05-10T10:37:32.150Z,1822.50
2018-05-10T10:38:30.723Z,1586.25
2018-05-10T10:39:30.734Z,2143.13
2018-05-10T10:40:32.381Z,4201.88
2018-05-10T10:41:30.380Z,4190.63
2018-05-10T10:42:55.431Z,2013.75
2018-05-10T10:43:31.906Z,1929.38
2018-05-10T10:44:34.146Z,3661.88
2018-05-10T10:45:46.941Z,3892.50
2018-05-10T10:46:36.401Z,1625.63
2018-05-10T10:47:33.431Z,1591.88
2018-05-10T10:48:39.487Z,3054.38
2018-05-10T10:49:33.444Z,4033.13
2018-05-10T10:50:34.918Z,1563.75
2018-05-10T10:51:36.933Z,1524.38
2018-05-10T10:52:36.394Z,1710.00
2018-05-10T10:53:34.884Z,4213.13
2018-05-10T10:54:34.938Z,4100.63
2018-05-10T10:55:45.900Z,3926.25
2018-05-10T10:56:35.378Z,3847.50
2018-05-10T10:57:35.885Z,2205.00
2018-05-10T10:58:39.974Z,2036.25
2018-05-10T10:59:39.930Z,3898.13
2018-05-10T11:00:41.941Z,3954.38
2018-05-10T11:01:34.458Z,3920.63
2018-05-10T11:02:36.437Z,3926.25
2018-05-10T11:03:50.489Z,3948.75
2018-05-10T11:04:52.384Z,4005.00
2018-05-10T11:05:38.409Z,4061.25
2018-05-10T11:06:40.906Z,4117.50
2018-05-10T11:07:39.318Z,3268.13
2018-05-10T11:09:13.532Z,2970.00
2018-05-10T11:11:10.526Z,2435.63
2018-05-10T11:12:09.813Z,3448.13
2018-05-10T11:13:17.515Z,4021.88
2018-05-10T11:14:09.875Z,3386.25
2018-05-10T11:15:21.469Z,3864.38
2018-05-10T11:16:13.507Z,4078.13
2018-05-10T11:17:20.518Z,4044.38
2018-05-10T11:18:10.536Z,3920.63
2018-05-10T11:19:13.043Z,3898.13
2018-05-10T11:20:13.979Z,3813.75
2018-05-10T11:21:12.524Z,3673.13
2018-05-10T11:22:11.480Z,3386.25
2018-05-10T11:23:25.528Z,1485.00
2018-05-10T11:24:34.041Z,1501.88
2018-05-10T11:25:12.018Z,1569.38
2018-05-10T11:26:12.109Z,2700.00
2018-05-10T11:27:12.565Z,2525.63
2018-05-10T11:28:11.490Z,1946.25
2018-05-10T11:29:12.519Z,1951.88
2018-05-10T11:30:18.486Z,1906.88
2018-05-10T11:31:12.986Z,1912.50
2018-05-10T11:32:19.991Z,1884.38
2018-05-10T11:33:16.521Z,1901.25
2018-05-10T11:34:15.524Z,1794.38
2018-05-10T11:35:16.033Z,1771.88
2018-05-10T11:36:12.322Z,1636.88
2018-05-10T11:37:12.478Z,1642.50
2018-05-10T11:38:13.698Z,1586.25
2018-05-10T11:39:13.003Z,1541.25
2018-05-10T11:40:19.021Z,1501.88
2018-05-10T11:41:15.529Z,1428.75
2018-05-10T11:42:16.973Z,1485.00
2018-05-10T11:43:15.538Z,1710.00
2018-05-10T11:44:17.526Z,1704.38
2018-05-10T11:45:16.647Z,1681.88
2018-05-10T11:46:16.024Z,1681.88
2018-05-10T11:47:14.499Z,1603.13
2018-05-10T11:48:16.565Z,1648.13
2018-05-10T11:49:16.529Z,1473.75
2018-05-10T11:50:19.035Z,1434.38
2018-05-10T11:51:17.056Z,1344.38
2018-05-10T11:52:17.028Z,1260.00
2018-05-10T11:53:15.984Z,1215.00
2018-05-10T11:54:16.719Z,1215.00
2018-05-10T11:55:17.508Z,1271.25
2018-05-10T11:56:17.116Z,1434.38
2018-05-10T11:57:16.357Z,3313.13
2018-05-10T11:58:18.671Z,2812.50
2018-05-10T11:59:29.980Z,3487.50
2018-05-10T12:00:20.549Z,3566.25
2018-05-10T12:01:19.994Z,3577.50
2018-05-10T12:02:18.371Z,3476.25
2018-05-10T12:03:18.536Z,3240.00
2018-05-10T12:04:18.980Z,2143.13
2018-05-10T12:05:17.967Z,2289.38
2018-05-10T12:06:20.055Z,1625.63
2018-05-10T12:07:20.022Z,1226.25
2018-05-10T12:08:22.485Z,1226.25
2018-05-10T12:09:23.142Z,1243.13
2018-05-10T12:10:19.977Z,1293.75
2018-05-10T12:11:19.262Z,1434.38
2018-05-10T12:12:19.476Z,1501.88
2018-05-10T12:13:19.639Z,1490.63
2018-05-10T12:14:19.816Z,1479.38
2018-05-10T12:15:36.028Z,1473.75
2018-05-10T12:16:49.222Z,1366.88
2018-05-10T12:17:22.394Z,1327.50
2018-05-10T12:18:20.609Z,1462.50
2018-05-10T12:19:20.837Z,1125.00
2018-05-10T12:20:21.037Z,1108.13
2018-05-10T12:21:25.022Z,1113.75
2018-05-10T12:22:21.362Z,1125.00
2018-05-10T12:23:24.487Z,1186.88
2018-05-10T12:24:22.512Z,1265.63
2018-05-10T12:25:23.564Z,1220.63
2018-05-10T12:26:24.028Z,1136.25
2018-05-10T12:27:22.417Z,945.00
2018-05-10T12:28:25.493Z,877.50
2018-05-10T12:29:26.521Z,855.00
2018-05-10T12:30:24.619Z,815.63
2018-05-10T12:31:25.563Z,781.88
2018-05-10T12:32:25.097Z,765.00
2018-05-10T12:33:31.071Z,776.25
2018-05-10T12:34:23.672Z,770.63
2018-05-10T12:35:26.481Z,703.13
2018-05-10T12:36:29.023Z,646.88
2018-05-10T12:37:29.511Z,630.00
2018-05-10T12:38:24.988Z,630.00
2018-05-10T12:39:26.531Z,601.88
2018-05-10T12:40:26.523Z,556.88
2018-05-10T12:41:40.561Z,500.63
2018-05-10T12:42:41.037Z,466.88
2018-05-10T12:43:25.373Z,416.25
2018-05-10T12:44:27.555Z,371.25
2018-05-10T12:45:26.486Z,337.50
2018-05-10T12:46:26.127Z,298.13
2018-05-10T12:47:38.030Z,270.00
2018-05-10T12:48:28.041Z,253.13
2018-05-10T12:49:42.999Z,253.13
2018-05-10T12:50:43.520Z,264.38
2018-05-10T12:51:27.878Z,286.88
2018-05-10T12:52:30.680Z,320.63
2018-05-10T12:53:28.022Z,343.13
2018-05-10T12:54:27.431Z,360.00
2018-05-10T12:55:28.610Z,365.63
2018-05-10T12:56:27.951Z,365.63
2018-05-10T12:57:35.528Z,371.25
2018-05-10T12:58:30.086Z,376.88
2018-05-10T12:59:28.269Z,382.50
2018-05-10T13:00:30.035Z,376.88
2018-05-10T13:01:36.591Z,371.25